Main page
METAR-TAF:

METAR-TAF

Airports :

Ostend–Bruges International Airport

Ostend, Belgium

latitude: 51-12N, longitude: 002-52E, elevation: 4 m

Current weather observation

The report was made 16 minutes ago, at 20:20 UTC
Wind 4 kt from the North
Temperature 5°C
Humidity 87%
Pressure 1036 hPa
Visibility 10 km or more
Overcast at a height of 1800 ft

METAR: EBOS 222020Z 01004KT 9999 OVC018 05/03 Q1036 NOSIG

Time: 21:36 (20:36 UTC)

Forecast

The report was made 3 hours and 34 minutes ago, at 17:02 UTC
Forecast valid from 22 at 18 UTC to 23 at 24 UTC
Wind 5 kt from the West/Northwest
Visibility: 8000 m
Broken clouds at a height of 1800 ft
Probability 40% :
Temporary
from 22 at 18 UTC to 23 at 09 UTC
Broken clouds at a height of 1300 ft

TAF: EBOS 221702Z 2218/2324 30005KT 8000 BKN018 PROB40 TEMPO 2218/2309 BKN013

Weather observations and forecasts of more than 4000 airports (METAR and TAF reports).

The available stations are represented by yellow and red dots on the map.

Hover mouse over dot to see the name of the station.

Then click to see weather observations and forecasts.

To change the map : click on the green buttons with a black cross to zoom in, on the green button with a dash to zoom out, or on the green arrows for adjacent maps.


METAR-TAF: